Highland Beach, Florida
Current Conditions -  °F | °C
As of 1:53 PM on Sunday 23 Nov 2014 (Local Time) from KPMP Reporting Station
Scattered Clouds Scattered Clouds  
Wind Chill: 29°   Ceiling: Unl
Heat Index: 32°   Visibility: 9mi
Dew Point: 23°   Wind: 16mph
Humidity: 69%   Direction: 150°SSE
Pressure: 29.95"   Gusts: NA
Location:  26.4095°N, 80.0961°W
Report Text: KPMP 231853Z 15014KT 9SM FEW024 SCT037 29/23 A2995 RMK AO2 SLP142 T02890228
Loading
Personal Weather Stations






























Interactive Weather Map New forecast layout! Learn more

10-Day Weather Forecast

Advertisements
Track Severe Weather on mobile